Pagrindinis puslapis
METAR-TAF:

METAR-TAF

Oro uostai :

Sonora Municipal Airport

Sonora, Teksasas, Jungtinės Amerikos Valstijos

platuma: 30-35-08N, ilguma: 100-38-54W, Aukštis: 652 m

Dabartinis oras

Ataskaita buvo paskelbta 29 minutes, ne 10:15 UTC
Ramus vėjas
Temperatūra 15°C
Drėgmė 94%
Slėgis 1023 hPa
Matomumas: 16.1 km
Giedras dangus

METAR: KSOA 291015Z AUTO 00000KT 10SM CLR 15/14 A3021 RMK AO2

Laikas: 05:44 (10:44 UTC)

Prognozė

Ataskaita buvo paskelbta 5 valandos ir 4 minutes, ne 05:40 UTC
Prognozė galioja nuo 29 metu 06 UTC su 30 metu 06 UTC
Vėjas 3 kt nuo kintamojo kryptimis
Matomumas: 10 km
Išsisklaidę debesys ne aukštis 25000 ft
Nuo 29 metu 1500 UTC
Vėjas 8 kt iš Rytų/Šiaurės Rytų
Matomumas: 10 km
Giedras dangus
Nuo 30 metu 0100 UTC
Vėjas 2 kt nuo kintamojo kryptimis
Matomumas: 10 km
Giedras dangus

TAF: KSOA 290540Z 2906/3006 VRB03KT P6SM SCT250 FM291500 06008KT P6SM SKC FM300100 VRB02KT P6SM SKC

Orai ataskaitas ir orų prognozės (METAR, TAF).

turimą stotys yra geltonos ir raudonos taškus žemėlapyje.

Perkelti pele per norėdami pamatyti stoties vardą.

Tada spustelėkite, norėdami matyti oro stebėjimo ir prognozės.

Norėdami pakeisti žemėlapį: spustelėkite ant žalios mygtukų su juodo kryžiaus žemyn,; žalią mygtuką su brūkšneliu, jei norite nutolinti; arba žalių rodyklių gretimoms žemėlapius.


METAR-TAF: